sensor_id;sensor_type;location;lat;lon;timestamp;pressure;altitude;pressure_sealevel;temperature;humidity
64243;BME280;50573;51.512;5.386;2023-02-13T00:06:56;103470.41;;;7.15;98.65
64243;BME280;50573;51.512;5.386;2023-02-13T00:17:00;103458.91;;;7.18;99.00
64243;BME280;50573;51.512;5.386;2023-02-13T00:27:04;103459.00;;;7.22;98.43
64243;BME280;50573;51.512;5.386;2023-02-13T00:37:07;103447.72;;;7.20;99.84
64243;BME280;50573;51.512;5.386;2023-02-13T00:47:12;103441.50;;;7.19;99.82
64243;BME280;50573;51.512;5.386;2023-02-13T00:57:15;103452.88;;;7.25;99.95
64243;BME280;50573;51.512;5.386;2023-02-13T01:07:19;103445.09;;;7.23;99.85
64243;BME280;50573;51.512;5.386;2023-02-13T01:17:22;103443.53;;;7.22;100.00
64243;BME280;50573;51.512;5.386;2023-02-13T01:27:29;103439.38;;;7.13;100.00
64243;BME280;50573;51.512;5.386;2023-02-13T01:37:33;103435.25;;;7.03;100.00
64243;BME280;50573;51.512;5.386;2023-02-13T01:47:39;103422.16;;;6.93;100.00
64243;BME280;50573;51.512;5.386;2023-02-13T01:57:49;103415.19;;;6.80;100.00
64243;BME280;50573;51.512;5.386;2023-02-13T02:07:57;103422.22;;;6.69;100.00
64243;BME280;50573;51.512;5.386;2023-02-13T02:18:03;103421.34;;;6.41;100.00
64243;BME280;50573;51.512;5.386;2023-02-13T02:28:38;103415.25;;;6.08;100.00
64243;BME280;50573;51.512;5.386;2023-02-13T02:39:01;103413.16;;;5.81;100.00
64243;BME280;50573;51.512;5.386;2023-02-13T02:49:11;103403.22;;;5.60;100.00
64243;BME280;50573;51.512;5.386;2023-02-13T02:59:37;103397.28;;;5.46;100.00
64243;BME280;50573;51.512;5.386;2023-02-13T03:10:02;103401.88;;;5.34;100.00
64243;BME280;50573;51.512;5.386;2023-02-13T03:20:34;103403.75;;;5.21;100.00
64243;BME280;50573;51.512;5.386;2023-02-13T03:31:05;103392.13;;;5.09;100.00
64243;BME280;50573;51.512;5.386;2023-02-13T03:41:22;103401.72;;;4.98;100.00
64243;BME280;50573;51.512;5.386;2023-02-13T03:51:29;103404.69;;;4.84;100.00
64243;BME280;50573;51.512;5.386;2023-02-13T04:01:36;103402.31;;;4.62;100.00
64243;BME280;50573;51.512;5.386;2023-02-13T04:11:45;103414.53;;;4.39;100.00
64243;BME280;50573;51.512;5.386;2023-02-13T04:21:56;103399.38;;;4.26;100.00
64243;BME280;50573;51.512;5.386;2023-02-13T04:32:00;103394.47;;;4.19;100.00
64243;BME280;50573;51.512;5.386;2023-02-13T04:42:05;103393.06;;;4.13;100.00
64243;BME280;50573;51.512;5.386;2023-02-13T04:52:08;103391.16;;;4.14;100.00
64243;BME280;50573;51.512;5.386;2023-02-13T05:02:12;103390.69;;;4.12;100.00
64243;BME280;50573;51.512;5.386;2023-02-13T05:12:15;103384.72;;;3.98;100.00
64243;BME280;50573;51.512;5.386;2023-02-13T05:22:19;103385.97;;;4.00;100.00
64243;BME280;50573;51.512;5.386;2023-02-13T05:32:40;103379.66;;;3.96;100.00
64243;BME280;50573;51.512;5.386;2023-02-13T05:42:45;103392.59;;;3.74;100.00
64243;BME280;50573;51.512;5.386;2023-02-13T05:52:48;103394.72;;;3.43;100.00
64243;BME280;50573;51.512;5.386;2023-02-13T06:02:52;103389.84;;;3.11;100.00
64243;BME280;50573;51.512;5.386;2023-02-13T06:12:55;103386.69;;;2.83;100.00
64243;BME280;50573;51.512;5.386;2023-02-13T06:23:00;103374.47;;;2.60;100.00
64243;BME280;50573;51.512;5.386;2023-02-13T06:33:03;103392.84;;;2.49;100.00
64243;BME280;50573;51.512;5.386;2023-02-13T06:43:07;103399.59;;;2.38;100.00
64243;BME280;50573;51.512;5.386;2023-02-13T06:53:10;103396.22;;;2.24;100.00
64243;BME280;50573;51.512;5.386;2023-02-13T07:03:15;103409.00;;;2.10;100.00
64243;BME280;50573;51.512;5.386;2023-02-13T07:13:19;103408.34;;;2.05;100.00
64243;BME280;50573;51.512;5.386;2023-02-13T07:23:23;103409.63;;;2.07;100.00
64243;BME280;50573;51.512;5.386;2023-02-13T07:33:26;103405.19;;;2.11;100.00
64243;BME280;50573;51.512;5.386;2023-02-13T07:43:31;103409.06;;;2.19;100.00
64243;BME280;50573;51.512;5.386;2023-02-13T07:53:34;103408.75;;;2.29;100.00
64243;BME280;50573;51.512;5.386;2023-02-13T08:03:39;103424.13;;;2.45;100.00
64243;BME280;50573;51.512;5.386;2023-02-13T08:13:42;103435.75;;;2.71;100.00
64243;BME280;50573;51.512;5.386;2023-02-13T08:23:47;103444.66;;;3.23;100.00
64243;BME280;50573;51.512;5.386;2023-02-13T08:33:54;103454.97;;;3.47;100.00
64243;BME280;50573;51.512;5.386;2023-02-13T08:43:58;103457.59;;;3.81;100.00
64243;BME280;50573;51.512;5.386;2023-02-13T08:54:02;103455.72;;;4.19;100.00
64243;BME280;50573;51.512;5.386;2023-02-13T09:04:06;103464.31;;;4.50;100.00
64243;BME280;50573;51.512;5.386;2023-02-13T09:14:10;103457.03;;;4.71;100.00
64243;BME280;50573;51.512;5.386;2023-02-13T09:24:14;103448.81;;;4.88;100.00
64243;BME280;50573;51.512;5.386;2023-02-13T09:34:18;103456.75;;;5.14;100.00
64243;BME280;50573;51.512;5.386;2023-02-13T09:44:27;103462.97;;;5.47;100.00
64243;BME280;50573;51.512;5.386;2023-02-13T09:54:40;103455.53;;;5.77;100.00
64243;BME280;50573;51.512;5.386;2023-02-13T10:04:47;103463.97;;;6.08;100.00
64243;BME280;50573;51.512;5.386;2023-02-13T10:15:00;103467.03;;;6.30;100.00
64243;BME280;50573;51.512;5.386;2023-02-13T10:25:16;103461.06;;;6.61;100.00
64243;BME280;50573;51.512;5.386;2023-02-13T10:35:27;103460.56;;;6.95;100.00
64243;BME280;50573;51.512;5.386;2023-02-13T10:45:58;103452.28;;;7.31;100.00
64243;BME280;50573;51.512;5.386;2023-02-13T10:56:22;103444.00;;;7.67;100.00
64243;BME280;50573;51.512;5.386;2023-02-13T11:06:28;103441.56;;;7.93;98.52
64243;BME280;50573;51.512;5.386;2023-02-13T11:16:42;103437.13;;;8.16;95.44
64243;BME280;50573;51.512;5.386;2023-02-13T11:26:49;103411.53;;;8.49;92.83
64243;BME280;50573;51.512;5.386;2023-02-13T11:37:08;103416.06;;;8.79;89.17
64243;BME280;50573;51.512;5.386;2023-02-13T11:47:30;103405.59;;;9.16;86.61
64243;BME280;50573;51.512;5.386;2023-02-13T11:57:36;103403.41;;;9.44;87.70
64243;BME280;50573;51.512;5.386;2023-02-13T12:07:42;103388.31;;;9.69;83.86
64243;BME280;50573;51.512;5.386;2023-02-13T12:18:01;103383.53;;;9.85;82.03
64243;BME280;50573;51.512;5.386;2023-02-13T12:28:12;103375.81;;;10.13;80.06
64243;BME280;50573;51.512;5.386;2023-02-13T12:38:28;103357.91;;;10.38;82.12
64243;BME280;50573;51.512;5.386;2023-02-13T12:48:41;103354.41;;;10.67;79.78
64243;BME280;50573;51.512;5.386;2023-02-13T12:58:59;103333.72;;;10.96;78.54
64243;BME280;50573;51.512;5.386;2023-02-13T13:09:16;103334.66;;;11.10;77.38
64243;BME280;50573;51.512;5.386;2023-02-13T13:19:31;103327.88;;;11.34;74.74
64243;BME280;50573;51.512;5.386;2023-02-13T13:29:42;103326.00;;;11.42;74.99
64243;BME280;50573;51.512;5.386;2023-02-13T13:39:51;103309.03;;;11.62;74.63
64243;BME280;50573;51.512;5.386;2023-02-13T13:50:00;103300.91;;;11.69;73.90
64243;BME280;50573;51.512;5.386;2023-02-13T14:00:25;103290.41;;;11.71;74.42
64243;BME280;50573;51.512;5.386;2023-02-13T14:21:08;103269.84;;;11.88;73.05
64243;BME280;50573;51.512;5.386;2023-02-13T14:31:19;103276.16;;;12.02;73.19
64243;BME280;50573;51.512;5.386;2023-02-13T14:41:44;103269.97;;;12.09;72.52
64243;BME280;50573;51.512;5.386;2023-02-13T14:52:00;103266.06;;;12.10;72.81
64243;BME280;50573;51.512;5.386;2023-02-13T15:02:15;103266.06;;;12.10;72.38
64243;BME280;50573;51.512;5.386;2023-02-13T15:12:25;103256.69;;;12.07;72.79
64243;BME280;50573;51.512;5.386;2023-02-13T15:22:32;103247.28;;;12.05;72.80
64243;BME280;50573;51.512;5.386;2023-02-13T15:32:36;103239.44;;;11.93;73.07
64243;BME280;50573;51.512;5.386;2023-02-13T15:42:40;103227.66;;;11.78;73.52
64243;BME280;50573;51.512;5.386;2023-02-13T15:52:44;103232.31;;;11.78;73.07
64243;BME280;50573;51.512;5.386;2023-02-13T16:02:51;103230.22;;;11.61;73.48
64243;BME280;50573;51.512;5.386;2023-02-13T16:12:56;103226.28;;;11.55;73.71
64243;BME280;50573;51.512;5.386;2023-02-13T16:23:06;103226.13;;;11.34;74.74
64243;BME280;50573;51.512;5.386;2023-02-13T16:33:19;103227.47;;;11.10;75.68
64243;BME280;50573;51.512;5.386;2023-02-13T16:43:51;103228.06;;;10.89;76.51
64243;BME280;50573;51.512;5.386;2023-02-13T16:53:55;103236.84;;;10.72;77.40
64243;BME280;50573;51.512;5.386;2023-02-13T17:04:12;103238.38;;;10.37;79.13
64243;BME280;50573;51.512;5.386;2023-02-13T17:14:18;103227.41;;;10.00;80.52
64243;BME280;50573;51.512;5.386;2023-02-13T17:24:22;103245.63;;;9.70;82.34
64243;BME280;50573;51.512;5.386;2023-02-13T17:34:25;103231.94;;;9.40;85.02
64243;BME280;50573;51.512;5.386;2023-02-13T17:44:30;103246.47;;;9.25;84.79
64243;BME280;50573;51.512;5.386;2023-02-13T17:54:33;103245.00;;;9.09;87.27
64243;BME280;50573;51.512;5.386;2023-02-13T18:04:38;103236.34;;;8.81;87.66
64243;BME280;50573;51.512;5.386;2023-02-13T18:14:41;103240.81;;;8.51;88.81
64243;BME280;50573;51.512;5.386;2023-02-13T18:24:45;103241.63;;;8.16;89.04
64243;BME280;50573;51.512;5.386;2023-02-13T18:34:49;103235.19;;;8.05;94.15
64243;BME280;50573;51.512;5.386;2023-02-13T18:44:53;103229.78;;;7.90;91.05
64243;BME280;50573;51.512;5.386;2023-02-13T18:54:57;103232.38;;;7.67;93.97
64243;BME280;50573;51.512;5.386;2023-02-13T19:05:01;103206.44;;;7.35;93.39
64243;BME280;50573;51.512;5.386;2023-02-13T19:15:05;103218.44;;;7.03;93.69
64243;BME280;50573;51.512;5.386;2023-02-13T19:25:09;103221.94;;;6.60;94.50
64243;BME280;50573;51.512;5.386;2023-02-13T19:35:12;103221.72;;;6.26;95.46
64243;BME280;50573;51.512;5.386;2023-02-13T19:45:17;103221.59;;;5.95;97.67
64243;BME280;50573;51.512;5.386;2023-02-13T19:55:20;103221.38;;;5.63;97.52
64243;BME280;50573;51.512;5.386;2023-02-13T20:05:28;103219.44;;;5.40;98.21
64243;BME280;50573;51.512;5.386;2023-02-13T20:15:31;103223.50;;;5.22;98.91
64243;BME280;50573;51.512;5.386;2023-02-13T20:25:36;103227.88;;;5.02;99.58
64243;BME280;50573;51.512;5.386;2023-02-13T20:35:39;103224.66;;;4.88;100.00
64243;BME280;50573;51.512;5.386;2023-02-13T20:45:44;103221.81;;;4.73;100.00
64243;BME280;50573;51.512;5.386;2023-02-13T20:55:47;103219.66;;;4.66;100.00
64243;BME280;50573;51.512;5.386;2023-02-13T21:05:52;103218.50;;;4.55;100.00
64243;BME280;50573;51.512;5.386;2023-02-13T21:16:02;103222.97;;;4.51;100.00
64243;BME280;50573;51.512;5.386;2023-02-13T21:26:09;103230.34;;;4.63;100.00
64243;BME280;50573;51.512;5.386;2023-02-13T21:36:12;103235.56;;;4.47;100.00
64243;BME280;50573;51.512;5.386;2023-02-13T21:46:18;103228.94;;;4.24;100.00
64243;BME280;50573;51.512;5.386;2023-02-13T21:56:23;103230.38;;;4.01;100.00
64243;BME280;50573;51.512;5.386;2023-02-13T22:06:30;103224.16;;;3.80;100.00
64243;BME280;50573;51.512;5.386;2023-02-13T22:16:35;103215.19;;;3.67;100.00
64243;BME280;50573;51.512;5.386;2023-02-13T22:26:42;103214.03;;;3.48;100.00
64243;BME280;50573;51.512;5.386;2023-02-13T22:36:46;103211.72;;;3.29;100.00
64243;BME280;50573;51.512;5.386;2023-02-13T22:46:50;103211.50;;;3.14;100.00
64243;BME280;50573;51.512;5.386;2023-02-13T22:56:53;103200.16;;;3.00;100.00
64243;BME280;50573;51.512;5.386;2023-02-13T23:06:58;103196.06;;;2.85;100.00
64243;BME280;50573;51.512;5.386;2023-02-13T23:17:01;103200.34;;;2.77;100.00
64243;BME280;50573;51.512;5.386;2023-02-13T23:27:23;103192.75;;;2.71;100.00
64243;BME280;50573;51.512;5.386;2023-02-13T23:37:26;103199.91;;;2.58;100.00
64243;BME280;50573;51.512;5.386;2023-02-13T23:47:31;103189.03;;;2.46;100.00
64243;BME280;50573;51.512;5.386;2023-02-13T23:57:34;103199.31;;;2.36;100.00
